sensor_id;sensor_type;location;lat;lon;timestamp;P1;durP1;ratioP1;P2;durP2;ratioP2
16147;SDS011;8179;59.364;18.018;2023-07-20T00:00:37;801.20;;;760.83;;
16147;SDS011;8179;59.364;18.018;2023-07-20T00:03:10;919.50;;;869.90;;
16147;SDS011;8179;59.364;18.018;2023-07-20T00:05:36;832.38;;;788.53;;
16147;SDS011;8179;59.364;18.018;2023-07-20T00:08:03;776.63;;;738.60;;
16147;SDS011;8179;59.364;18.018;2023-07-20T00:10:29;820.50;;;778.53;;
16147;SDS011;8179;59.364;18.018;2023-07-20T00:12:57;824.40;;;781.92;;
16147;SDS011;8179;59.364;18.018;2023-07-20T00:15:24;868.22;;;823.00;;
16147;SDS011;8179;59.364;18.018;2023-07-20T00:17:50;890.63;;;843.05;;
16147;SDS011;8179;59.364;18.018;2023-07-20T00:20:17;1999.90;;;999.90;;
16147;SDS011;8179;59.364;18.018;2023-07-20T00:22:44;1999.90;;;999.90;;
16147;SDS011;8179;59.364;18.018;2023-07-20T00:25:10;1999.90;;;999.90;;
16147;SDS011;8179;59.364;18.018;2023-07-20T00:27:37;1999.90;;;999.90;;
16147;SDS011;8179;59.364;18.018;2023-07-20T00:30:05;1999.90;;;999.90;;
16147;SDS011;8179;59.364;18.018;2023-07-20T00:32:32;1999.90;;;999.90;;
16147;SDS011;8179;59.364;18.018;2023-07-20T00:34:59;1999.90;;;999.90;;
16147;SDS011;8179;59.364;18.018;2023-07-20T00:37:25;1999.90;;;999.90;;
16147;SDS011;8179;59.364;18.018;2023-07-20T00:42:18;1999.90;;;999.90;;
16147;SDS011;8179;59.364;18.018;2023-07-20T00:44:45;1999.90;;;999.90;;
16147;SDS011;8179;59.364;18.018;2023-07-20T00:47:12;1583.18;;;829.08;;
16147;SDS011;8179;59.364;18.018;2023-07-20T00:49:39;825.50;;;782.78;;
16147;SDS011;8179;59.364;18.018;2023-07-20T00:52:06;1093.20;;;814.08;;
16147;SDS011;8179;59.364;18.018;2023-07-20T00:54:33;1999.90;;;999.90;;
16147;SDS011;8179;59.364;18.018;2023-07-20T00:57:00;720.55;;;684.08;;
16147;SDS011;8179;59.364;18.018;2023-07-20T00:59:27;1999.90;;;999.90;;
16147;SDS011;8179;59.364;18.018;2023-07-20T01:01:53;1314.63;;;798.05;;
16147;SDS011;8179;59.364;18.018;2023-07-20T01:04:21;1999.90;;;999.90;;
16147;SDS011;8179;59.364;18.018;2023-07-20T01:06:49;1999.90;;;999.90;;
16147;SDS011;8179;59.364;18.018;2023-07-20T01:09:19;1669.97;;;912.33;;
16147;SDS011;8179;59.364;18.018;2023-07-20T01:11:48;684.50;;;653.33;;
16147;SDS011;8179;59.364;18.018;2023-07-20T01:14:18;562.67;;;540.03;;
16147;SDS011;8179;59.364;18.018;2023-07-20T01:16:46;1999.90;;;999.90;;
16147;SDS011;8179;59.364;18.018;2023-07-20T01:19:14;1999.90;;;999.90;;
16147;SDS011;8179;59.364;18.018;2023-07-20T01:21:44;1999.90;;;999.90;;
16147;SDS011;8179;59.364;18.018;2023-07-20T01:27:00;1999.90;;;999.90;;
16147;SDS011;8179;59.364;18.018;2023-07-20T01:29:41;1999.90;;;999.90;;
16147;SDS011;8179;59.364;18.018;2023-07-20T01:32:11;1999.90;;;999.90;;
16147;SDS011;8179;59.364;18.018;2023-07-20T01:34:38;1999.90;;;999.90;;
16147;SDS011;8179;59.364;18.018;2023-07-20T01:37:05;1999.90;;;999.90;;
16147;SDS011;8179;59.364;18.018;2023-07-20T01:39:32;1999.90;;;999.90;;
16147;SDS011;8179;59.364;18.018;2023-07-20T01:41:59;1999.90;;;999.90;;
16147;SDS011;8179;59.364;18.018;2023-07-20T01:44:27;1999.90;;;999.90;;
16147;SDS011;8179;59.364;18.018;2023-07-20T01:46:53;1999.90;;;999.90;;
16147;SDS011;8179;59.364;18.018;2023-07-20T01:49:21;1999.90;;;999.90;;
16147;SDS011;8179;59.364;18.018;2023-07-20T01:51:48;1999.90;;;999.90;;
16147;SDS011;8179;59.364;18.018;2023-07-20T01:54:14;1999.90;;;999.90;;
16147;SDS011;8179;59.364;18.018;2023-07-20T01:56:41;1999.90;;;999.90;;
16147;SDS011;8179;59.364;18.018;2023-07-20T01:59:08;1999.90;;;999.90;;
16147;SDS011;8179;59.364;18.018;2023-07-20T02:01:34;1999.90;;;999.90;;
16147;SDS011;8179;59.364;18.018;2023-07-20T02:04:01;1999.90;;;999.90;;
16147;SDS011;8179;59.364;18.018;2023-07-20T02:06:30;1999.90;;;999.90;;
16147;SDS011;8179;59.364;18.018;2023-07-20T02:08:56;1999.90;;;999.90;;
16147;SDS011;8179;59.364;18.018;2023-07-20T02:11:24;1999.90;;;999.90;;
16147;SDS011;8179;59.364;18.018;2023-07-20T02:13:50;1999.90;;;999.90;;
16147;SDS011;8179;59.364;18.018;2023-07-20T02:16:17;1999.90;;;999.90;;
16147;SDS011;8179;59.364;18.018;2023-07-20T02:18:43;1999.90;;;999.90;;
16147;SDS011;8179;59.364;18.018;2023-07-20T02:21:10;1999.90;;;999.90;;
16147;SDS011;8179;59.364;18.018;2023-07-20T02:23:38;1999.90;;;999.90;;
16147;SDS011;8179;59.364;18.018;2023-07-20T02:26:04;1999.90;;;999.90;;
16147;SDS011;8179;59.364;18.018;2023-07-20T02:28:31;1999.90;;;999.90;;
16147;SDS011;8179;59.364;18.018;2023-07-20T02:30:57;1999.90;;;999.90;;
16147;SDS011;8179;59.364;18.018;2023-07-20T02:33:25;1999.90;;;999.90;;
16147;SDS011;8179;59.364;18.018;2023-07-20T02:35:52;1999.90;;;999.90;;
16147;SDS011;8179;59.364;18.018;2023-07-20T02:38:18;1999.90;;;999.90;;
16147;SDS011;8179;59.364;18.018;2023-07-20T02:40:46;1999.90;;;999.90;;
16147;SDS011;8179;59.364;18.018;2023-07-20T02:43:13;1999.90;;;999.90;;
16147;SDS011;8179;59.364;18.018;2023-07-20T02:45:40;1999.90;;;999.90;;
16147;SDS011;8179;59.364;18.018;2023-07-20T02:48:06;1999.90;;;999.90;;
16147;SDS011;8179;59.364;18.018;2023-07-20T02:50:34;1999.90;;;999.90;;
16147;SDS011;8179;59.364;18.018;2023-07-20T02:53:00;1999.90;;;999.90;;
16147;SDS011;8179;59.364;18.018;2023-07-20T02:55:27;1999.90;;;999.90;;
16147;SDS011;8179;59.364;18.018;2023-07-20T02:57:55;1999.90;;;999.90;;
16147;SDS011;8179;59.364;18.018;2023-07-20T03:00:21;1999.90;;;999.90;;
16147;SDS011;8179;59.364;18.018;2023-07-20T03:02:48;1999.90;;;999.90;;
16147;SDS011;8179;59.364;18.018;2023-07-20T03:05:17;1999.90;;;999.90;;
16147;SDS011;8179;59.364;18.018;2023-07-20T03:07:43;1999.90;;;999.90;;
16147;SDS011;8179;59.364;18.018;2023-07-20T03:10:10;1999.90;;;999.90;;
16147;SDS011;8179;59.364;18.018;2023-07-20T03:12:37;1999.90;;;999.90;;
16147;SDS011;8179;59.364;18.018;2023-07-20T03:15:06;1999.90;;;999.90;;
16147;SDS011;8179;59.364;18.018;2023-07-20T03:17:33;1999.90;;;999.90;;
16147;SDS011;8179;59.364;18.018;2023-07-20T03:19:59;1999.90;;;999.90;;
16147;SDS011;8179;59.364;18.018;2023-07-20T03:22:26;1999.90;;;999.90;;
16147;SDS011;8179;59.364;18.018;2023-07-20T03:24:52;1999.90;;;999.90;;
16147;SDS011;8179;59.364;18.018;2023-07-20T03:27:19;1999.90;;;999.90;;
16147;SDS011;8179;59.364;18.018;2023-07-20T03:29:45;1999.90;;;999.90;;
16147;SDS011;8179;59.364;18.018;2023-07-20T03:32:13;1999.90;;;999.90;;
16147;SDS011;8179;59.364;18.018;2023-07-20T03:34:40;1999.90;;;999.90;;
16147;SDS011;8179;59.364;18.018;2023-07-20T03:37:06;1999.90;;;999.90;;
16147;SDS011;8179;59.364;18.018;2023-07-20T03:39:33;1999.90;;;999.90;;
16147;SDS011;8179;59.364;18.018;2023-07-20T03:41:59;1999.90;;;999.90;;
16147;SDS011;8179;59.364;18.018;2023-07-20T03:44:26;1999.90;;;999.90;;
16147;SDS011;8179;59.364;18.018;2023-07-20T03:46:53;744.15;;;707.80;;
16147;SDS011;8179;59.364;18.018;2023-07-20T03:49:21;781.67;;;742.15;;
16147;SDS011;8179;59.364;18.018;2023-07-20T03:51:47;903.10;;;853.33;;
16147;SDS011;8179;59.364;18.018;2023-07-20T03:54:14;954.72;;;899.67;;
16147;SDS011;8179;59.364;18.018;2023-07-20T03:56:40;913.22;;;862.30;;
16147;SDS011;8179;59.364;18.018;2023-07-20T03:59:07;843.95;;;799.03;;
16147;SDS011;8179;59.364;18.018;2023-07-20T04:01:33;915.00;;;863.97;;
16147;SDS011;8179;59.364;18.018;2023-07-20T04:04:01;838.53;;;794.42;;
16147;SDS011;8179;59.364;18.018;2023-07-20T04:06:29;892.28;;;844.47;;
16147;SDS011;8179;59.364;18.018;2023-07-20T04:08:56;876.28;;;829.20;;
16147;SDS011;8179;59.364;18.018;2023-07-20T04:11:22;890.25;;;842.15;;
16147;SDS011;8179;59.364;18.018;2023-07-20T04:13:49;833.25;;;789.70;;
16147;SDS011;8179;59.364;18.018;2023-07-20T04:16:15;712.03;;;678.75;;
16147;SDS011;8179;59.364;18.018;2023-07-20T04:18:42;737.75;;;702.10;;
16147;SDS011;8179;59.364;18.018;2023-07-20T04:21:08;621.72;;;594.85;;
16147;SDS011;8179;59.364;18.018;2023-07-20T04:23:36;743.22;;;706.25;;
16147;SDS011;8179;59.364;18.018;2023-07-20T04:26:03;629.40;;;601.67;;
16147;SDS011;8179;59.364;18.018;2023-07-20T04:28:29;701.60;;;668.47;;
16147;SDS011;8179;59.364;18.018;2023-07-20T04:31:09;695.35;;;662.67;;
16147;SDS011;8179;59.364;18.018;2023-07-20T04:33:35;641.17;;;612.88;;
16147;SDS011;8179;59.364;18.018;2023-07-20T04:36:02;727.65;;;692.33;;
16147;SDS011;8179;59.364;18.018;2023-07-20T04:38:29;584.65;;;559.60;;
16147;SDS011;8179;59.364;18.018;2023-07-20T04:40:57;559.92;;;536.60;;
16147;SDS011;8179;59.364;18.018;2023-07-20T04:43:23;506.58;;;487.10;;
16147;SDS011;8179;59.364;18.018;2023-07-20T04:45:50;522.53;;;501.58;;
16147;SDS011;8179;59.364;18.018;2023-07-20T04:48:17;533.92;;;512.40;;
16147;SDS011;8179;59.364;18.018;2023-07-20T04:50:44;427.55;;;411.85;;
16147;SDS011;8179;59.364;18.018;2023-07-20T04:53:10;410.15;;;395.38;;
16147;SDS011;8179;59.364;18.018;2023-07-20T04:55:37;483.02;;;464.25;;
16147;SDS011;8179;59.364;18.018;2023-07-20T04:58:05;298.42;;;288.45;;
16147;SDS011;8179;59.364;18.018;2023-07-20T05:00:32;288.25;;;278.77;;
16147;SDS011;8179;59.364;18.018;2023-07-20T05:02:58;357.73;;;344.85;;
16147;SDS011;8179;59.364;18.018;2023-07-20T05:05:25;320.00;;;308.48;;
16147;SDS011;8179;59.364;18.018;2023-07-20T05:07:51;318.98;;;308.05;;
16147;SDS011;8179;59.364;18.018;2023-07-20T05:10:18;268.02;;;259.30;;
16147;SDS011;8179;59.364;18.018;2023-07-20T05:12:45;481.48;;;463.13;;
16147;SDS011;8179;59.364;18.018;2023-07-20T05:15:12;446.60;;;429.85;;
16147;SDS011;8179;59.364;18.018;2023-07-20T05:17:39;384.00;;;369.83;;
16147;SDS011;8179;59.364;18.018;2023-07-20T05:20:06;534.97;;;513.03;;
16147;SDS011;8179;59.364;18.018;2023-07-20T05:22:34;524.45;;;502.92;;
16147;SDS011;8179;59.364;18.018;2023-07-20T05:25:01;474.42;;;456.45;;
16147;SDS011;8179;59.364;18.018;2023-07-20T05:27:28;537.22;;;514.50;;
16147;SDS011;8179;59.364;18.018;2023-07-20T05:29:54;455.67;;;437.95;;
16147;SDS011;8179;59.364;18.018;2023-07-20T05:32:23;568.88;;;544.45;;
16147;SDS011;8179;59.364;18.018;2023-07-20T05:34:51;422.42;;;405.52;;
16147;SDS011;8179;59.364;18.018;2023-07-20T05:37:17;555.25;;;530.20;;
16147;SDS011;8179;59.364;18.018;2023-07-20T05:39:44;633.78;;;603.78;;
16147;SDS011;8179;59.364;18.018;2023-07-20T05:42:10;474.13;;;455.15;;
16147;SDS011;8179;59.364;18.018;2023-07-20T05:44:37;459.05;;;441.33;;
16147;SDS011;8179;59.364;18.018;2023-07-20T05:47:04;497.00;;;476.15;;
16147;SDS011;8179;59.364;18.018;2023-07-20T05:49:32;430.30;;;413.85;;
16147;SDS011;8179;59.364;18.018;2023-07-20T05:51:59;567.95;;;543.72;;
16147;SDS011;8179;59.364;18.018;2023-07-20T05:54:26;541.50;;;518.83;;
16147;SDS011;8179;59.364;18.018;2023-07-20T05:56:53;590.05;;;563.70;;
16147;SDS011;8179;59.364;18.018;2023-07-20T05:59:20;533.42;;;511.02;;
16147;SDS011;8179;59.364;18.018;2023-07-20T06:01:48;591.22;;;565.75;;
16147;SDS011;8179;59.364;18.018;2023-07-20T06:04:15;527.65;;;505.55;;
16147;SDS011;8179;59.364;18.018;2023-07-20T06:06:43;427.13;;;411.15;;
16147;SDS011;8179;59.364;18.018;2023-07-20T06:09:09;458.17;;;438.58;;
16147;SDS011;8179;59.364;18.018;2023-07-20T06:11:37;478.35;;;460.15;;
16147;SDS011;8179;59.364;18.018;2023-07-20T06:14:03;280.75;;;271.02;;
16147;SDS011;8179;59.364;18.018;2023-07-20T06:16:30;574.67;;;549.83;;
16147;SDS011;8179;59.364;18.018;2023-07-20T06:18:56;591.88;;;565.58;;
16147;SDS011;8179;59.364;18.018;2023-07-20T06:21:23;555.47;;;530.78;;
16147;SDS011;8179;59.364;18.018;2023-07-20T06:23:51;677.20;;;644.08;;
16147;SDS011;8179;59.364;18.018;2023-07-20T06:26:17;635.88;;;606.10;;
16147;SDS011;8179;59.364;18.018;2023-07-20T06:28:45;459.27;;;440.35;;
16147;SDS011;8179;59.364;18.018;2023-07-20T06:31:11;531.03;;;508.48;;
16147;SDS011;8179;59.364;18.018;2023-07-20T06:33:38;659.08;;;627.35;;
16147;SDS011;8179;59.364;18.018;2023-07-20T06:36:04;569.35;;;544.47;;
16147;SDS011;8179;59.364;18.018;2023-07-20T06:38:31;565.53;;;541.15;;
16147;SDS011;8179;59.364;18.018;2023-07-20T06:40:58;505.80;;;485.73;;
16147;SDS011;8179;59.364;18.018;2023-07-20T06:43:25;549.05;;;525.47;;
16147;SDS011;8179;59.364;18.018;2023-07-20T06:45:52;557.28;;;533.17;;
16147;SDS011;8179;59.364;18.018;2023-07-20T06:48:19;640.97;;;609.30;;
16147;SDS011;8179;59.364;18.018;2023-07-20T06:50:45;485.08;;;465.33;;
16147;SDS011;8179;59.364;18.018;2023-07-20T06:53:12;739.25;;;701.47;;
16147;SDS011;8179;59.364;18.018;2023-07-20T06:55:38;596.78;;;568.85;;
16147;SDS011;8179;59.364;18.018;2023-07-20T06:58:06;521.55;;;498.90;;
16147;SDS011;8179;59.364;18.018;2023-07-20T07:00:33;501.15;;;480.73;;
16147;SDS011;8179;59.364;18.018;2023-07-20T07:02:59;575.60;;;549.53;;
16147;SDS011;8179;59.364;18.018;2023-07-20T07:05:26;583.65;;;556.55;;
16147;SDS011;8179;59.364;18.018;2023-07-20T07:07:52;632.85;;;601.28;;
16147;SDS011;8179;59.364;18.018;2023-07-20T07:10:19;603.63;;;575.85;;
16147;SDS011;8179;59.364;18.018;2023-07-20T07:12:45;644.65;;;613.15;;
16147;SDS011;8179;59.364;18.018;2023-07-20T07:15:13;757.60;;;717.58;;
16147;SDS011;8179;59.364;18.018;2023-07-20T07:17:40;717.35;;;680.53;;
16147;SDS011;8179;59.364;18.018;2023-07-20T07:20:08;765.80;;;725.35;;
16147;SDS011;8179;59.364;18.018;2023-07-20T07:22:35;894.30;;;843.70;;
16147;SDS011;8179;59.364;18.018;2023-07-20T07:25:01;1008.20;;;944.35;;
16147;SDS011;8179;59.364;18.018;2023-07-20T07:27:28;923.03;;;867.05;;
16147;SDS011;8179;59.364;18.018;2023-07-20T07:29:55;1032.22;;;964.95;;
16147;SDS011;8179;59.364;18.018;2023-07-20T07:32:23;1001.08;;;937.83;;
16147;SDS011;8179;59.364;18.018;2023-07-20T07:34:50;998.67;;;936.33;;
16147;SDS011;8179;59.364;18.018;2023-07-20T07:37:17;1124.03;;;999.90;;
16147;SDS011;8179;59.364;18.018;2023-07-20T07:39:44;1101.95;;;999.90;;
16147;SDS011;8179;59.364;18.018;2023-07-20T07:42:11;1031.03;;;966.50;;
16147;SDS011;8179;59.364;18.018;2023-07-20T07:44:37;1013.45;;;951.22;;
16147;SDS011;8179;59.364;18.018;2023-07-20T07:47:04;1174.72;;;999.90;;
16147;SDS011;8179;59.364;18.018;2023-07-20T07:49:32;1066.30;;;989.72;;
16147;SDS011;8179;59.364;18.018;2023-07-20T07:51:59;1129.65;;;999.90;;
16147;SDS011;8179;59.364;18.018;2023-07-20T07:54:27;1189.20;;;999.90;;
16147;SDS011;8179;59.364;18.018;2023-07-20T07:56:53;963.80;;;907.10;;
16147;SDS011;8179;59.364;18.018;2023-07-20T07:59:23;1050.32;;;982.40;;
16147;SDS011;8179;59.364;18.018;2023-07-20T08:01:49;1147.85;;;999.90;;
16147;SDS011;8179;59.364;18.018;2023-07-20T08:04:16;1214.80;;;999.90;;
16147;SDS011;8179;59.364;18.018;2023-07-20T08:06:44;1080.00;;;998.92;;
16147;SDS011;8179;59.364;18.018;2023-07-20T08:09:11;1088.18;;;999.13;;
16147;SDS011;8179;59.364;18.018;2023-07-20T08:11:38;1009.00;;;946.00;;
16147;SDS011;8179;59.364;18.018;2023-07-20T08:14:05;973.17;;;915.53;;
16147;SDS011;8179;59.364;18.018;2023-07-20T08:16:31;983.53;;;925.70;;
16147;SDS011;8179;59.364;18.018;2023-07-20T08:18:59;1037.45;;;971.78;;
16147;SDS011;8179;59.364;18.018;2023-07-20T08:21:25;950.08;;;894.20;;
16147;SDS011;8179;59.364;18.018;2023-07-20T08:23:53;1049.75;;;982.88;;
16147;SDS011;8179;59.364;18.018;2023-07-20T08:26:20;1087.07;;;999.72;;
16147;SDS011;8179;59.364;18.018;2023-07-20T08:28:47;1062.20;;;991.58;;
16147;SDS011;8179;59.364;18.018;2023-07-20T08:31:14;1034.75;;;970.92;;
16147;SDS011;8179;59.364;18.018;2023-07-20T08:33:40;976.47;;;917.40;;
16147;SDS011;8179;59.364;18.018;2023-07-20T08:36:07;890.05;;;840.97;;
16147;SDS011;8179;59.364;18.018;2023-07-20T08:38:34;891.15;;;842.08;;
16147;SDS011;8179;59.364;18.018;2023-07-20T08:41:01;994.85;;;934.72;;
16147;SDS011;8179;59.364;18.018;2023-07-20T08:43:28;933.65;;;879.92;;
16147;SDS011;8179;59.364;18.018;2023-07-20T08:45:56;939.30;;;884.97;;
16147;SDS011;8179;59.364;18.018;2023-07-20T08:48:23;941.15;;;886.75;;
16147;SDS011;8179;59.364;18.018;2023-07-20T08:50:51;964.38;;;903.58;;
16147;SDS011;8179;59.364;18.018;2023-07-20T08:53:17;874.47;;;826.65;;
16147;SDS011;8179;59.364;18.018;2023-07-20T08:55:44;893.70;;;845.00;;
16147;SDS011;8179;59.364;18.018;2023-07-20T08:58:13;987.05;;;928.25;;
16147;SDS011;8179;59.364;18.018;2023-07-20T09:00:39;893.78;;;844.17;;
16147;SDS011;8179;59.364;18.018;2023-07-20T09:03:07;840.85;;;796.60;;
16147;SDS011;8179;59.364;18.018;2023-07-20T09:05:34;870.67;;;823.38;;
16147;SDS011;8179;59.364;18.018;2023-07-20T09:08:01;949.83;;;895.38;;
16147;SDS011;8179;59.364;18.018;2023-07-20T09:10:28;913.78;;;862.60;;
16147;SDS011;8179;59.364;18.018;2023-07-20T09:12:55;904.35;;;853.10;;
16147;SDS011;8179;59.364;18.018;2023-07-20T09:15:23;877.67;;;829.17;;
16147;SDS011;8179;59.364;18.018;2023-07-20T09:17:50;878.28;;;829.42;;
16147;SDS011;8179;59.364;18.018;2023-07-20T09:20:18;841.65;;;797.00;;
16147;SDS011;8179;59.364;18.018;2023-07-20T09:22:45;893.42;;;843.85;;
16147;SDS011;8179;59.364;18.018;2023-07-20T09:25:12;750.55;;;713.25;;
16147;SDS011;8179;59.364;18.018;2023-07-20T09:27:40;844.88;;;799.40;;
16147;SDS011;8179;59.364;18.018;2023-07-20T09:30:07;800.38;;;759.00;;
16147;SDS011;8179;59.364;18.018;2023-07-20T09:32:40;823.35;;;779.88;;
16147;SDS011;8179;59.364;18.018;2023-07-20T09:35:12;800.60;;;758.33;;
16147;SDS011;8179;59.364;18.018;2023-07-20T09:37:39;810.45;;;768.30;;
16147;SDS011;8179;59.364;18.018;2023-07-20T09:40:06;693.63;;;660.47;;
16147;SDS011;8179;59.364;18.018;2023-07-20T09:42:34;560.13;;;535.25;;
16147;SDS011;8179;59.364;18.018;2023-07-20T09:45:01;608.63;;;581.53;;
16147;SDS011;8179;59.364;18.018;2023-07-20T09:47:27;864.13;;;816.50;;
16147;SDS011;8179;59.364;18.018;2023-07-20T09:50:05;727.42;;;691.83;;
16147;SDS011;8179;59.364;18.018;2023-07-20T09:52:35;702.28;;;667.80;;
16147;SDS011;8179;59.364;18.018;2023-07-20T09:55:03;829.22;;;784.88;;
16147;SDS011;8179;59.364;18.018;2023-07-20T09:57:29;703.13;;;669.33;;
16147;SDS011;8179;59.364;18.018;2023-07-20T09:59:56;638.47;;;609.70;;
16147;SDS011;8179;59.364;18.018;2023-07-20T10:02:25;545.28;;;522.90;;
16147;SDS011;8179;59.364;18.018;2023-07-20T10:04:56;521.90;;;501.17;;
16147;SDS011;8179;59.364;18.018;2023-07-20T10:07:25;613.83;;;586.63;;
16147;SDS011;8179;59.364;18.018;2023-07-20T10:09:53;757.22;;;713.15;;
16147;SDS011;8179;59.364;18.018;2023-07-20T10:12:22;679.95;;;647.42;;
16147;SDS011;8179;59.364;18.018;2023-07-20T10:14:51;699.72;;;662.65;;
16147;SDS011;8179;59.364;18.018;2023-07-20T10:17:19;713.85;;;679.60;;
16147;SDS011;8179;59.364;18.018;2023-07-20T10:19:47;783.53;;;743.40;;
16147;SDS011;8179;59.364;18.018;2023-07-20T10:22:19;610.47;;;583.83;;
16147;SDS011;8179;59.364;18.018;2023-07-20T10:24:47;595.80;;;569.50;;
16147;SDS011;8179;59.364;18.018;2023-07-20T10:27:14;695.50;;;662.45;;
16147;SDS011;8179;59.364;18.018;2023-07-20T10:29:41;589.28;;;563.42;;
16147;SDS011;8179;59.364;18.018;2023-07-20T10:32:08;513.90;;;493.17;;
16147;SDS011;8179;59.364;18.018;2023-07-20T10:34:35;660.33;;;630.58;;
16147;SDS011;8179;59.364;18.018;2023-07-20T10:37:02;572.28;;;547.88;;
16147;SDS011;8179;59.364;18.018;2023-07-20T10:39:30;731.15;;;695.67;;
16147;SDS011;8179;59.364;18.018;2023-07-20T10:42:01;721.50;;;686.78;;
16147;SDS011;8179;59.364;18.018;2023-07-20T10:44:28;620.67;;;593.95;;
16147;SDS011;8179;59.364;18.018;2023-07-20T10:46:58;422.05;;;407.10;;
16147;SDS011;8179;59.364;18.018;2023-07-20T10:49:25;529.60;;;508.77;;
16147;SDS011;8179;59.364;18.018;2023-07-20T10:51:56;462.17;;;445.17;;
16147;SDS011;8179;59.364;18.018;2023-07-20T10:54:35;460.08;;;443.08;;
16147;SDS011;8179;59.364;18.018;2023-07-20T10:57:23;580.08;;;556.08;;
16147;SDS011;8179;59.364;18.018;2023-07-20T10:59:50;609.30;;;582.20;;
16147;SDS011;8179;59.364;18.018;2023-07-20T11:02:17;665.42;;;635.63;;
16147;SDS011;8179;59.364;18.018;2023-07-20T11:04:44;662.22;;;632.25;;
16147;SDS011;8179;59.364;18.018;2023-07-20T11:07:14;717.42;;;683.55;;
16147;SDS011;8179;59.364;18.018;2023-07-20T11:09:41;791.45;;;750.45;;
16147;SDS011;8179;59.364;18.018;2023-07-20T11:12:09;905.03;;;853.55;;
16147;SDS011;8179;59.364;18.018;2023-07-20T11:14:37;868.88;;;821.53;;
16147;SDS011;8179;59.364;18.018;2023-07-20T11:17:10;923.50;;;870.88;;
16147;SDS011;8179;59.364;18.018;2023-07-20T11:19:37;905.75;;;855.58;;
16147;SDS011;8179;59.364;18.018;2023-07-20T11:22:05;970.25;;;912.05;;
16147;SDS011;8179;59.364;18.018;2023-07-20T11:24:33;869.05;;;822.58;;
16147;SDS011;8179;59.364;18.018;2023-07-20T11:26:59;991.47;;;933.05;;
16147;SDS011;8179;59.364;18.018;2023-07-20T11:29:26;892.92;;;844.22;;
16147;SDS011;8179;59.364;18.018;2023-07-20T11:31:54;856.85;;;811.47;;
16147;SDS011;8179;59.364;18.018;2023-07-20T11:34:21;900.28;;;848.75;;
16147;SDS011;8179;59.364;18.018;2023-07-20T11:36:48;808.10;;;766.97;;
16147;SDS011;8179;59.364;18.018;2023-07-20T11:39:14;832.17;;;787.88;;
16147;SDS011;8179;59.364;18.018;2023-07-20T11:41:43;827.78;;;783.88;;
16147;SDS011;8179;59.364;18.018;2023-07-20T11:44:10;828.63;;;785.15;;
16147;SDS011;8179;59.364;18.018;2023-07-20T11:46:38;738.63;;;702.40;;
16147;SDS011;8179;59.364;18.018;2023-07-20T11:49:06;737.72;;;702.00;;
16147;SDS011;8179;59.364;18.018;2023-07-20T11:51:33;578.50;;;554.40;;
16147;SDS011;8179;59.364;18.018;2023-07-20T11:54:01;585.70;;;560.47;;
16147;SDS011;8179;59.364;18.018;2023-07-20T11:56:28;614.20;;;587.47;;
16147;SDS011;8179;59.364;18.018;2023-07-20T11:58:56;492.08;;;473.15;;
16147;SDS011;8179;59.364;18.018;2023-07-20T12:01:24;437.05;;;421.20;;
16147;SDS011;8179;59.364;18.018;2023-07-20T12:03:54;452.10;;;435.58;;
16147;SDS011;8179;59.364;18.018;2023-07-20T12:06:24;489.95;;;470.15;;
16147;SDS011;8179;59.364;18.018;2023-07-20T12:08:53;479.23;;;461.05;;
16147;SDS011;8179;59.364;18.018;2023-07-20T12:11:31;430.02;;;415.05;;
16147;SDS011;8179;59.364;18.018;2023-07-20T12:13:57;462.05;;;444.92;;
16147;SDS011;8179;59.364;18.018;2023-07-20T12:16:26;330.38;;;319.50;;
16147;SDS011;8179;59.364;18.018;2023-07-20T12:18:58;435.73;;;420.40;;
16147;SDS011;8179;59.364;18.018;2023-07-20T12:21:26;576.00;;;551.92;;
16147;SDS011;8179;59.364;18.018;2023-07-20T12:23:56;564.42;;;540.78;;
16147;SDS011;8179;59.364;18.018;2023-07-20T12:26:23;587.13;;;562.05;;
16147;SDS011;8179;59.364;18.018;2023-07-20T12:28:50;606.72;;;580.65;;
16147;SDS011;8179;59.364;18.018;2023-07-20T12:31:17;405.85;;;392.15;;
16147;SDS011;8179;59.364;18.018;2023-07-20T12:33:43;455.90;;;439.05;;
16147;SDS011;8179;59.364;18.018;2023-07-20T12:36:10;575.92;;;552.22;;
16147;SDS011;8179;59.364;18.018;2023-07-20T12:38:38;662.13;;;631.72;;
16147;SDS011;8179;59.364;18.018;2023-07-20T12:41:06;521.97;;;501.63;;
16147;SDS011;8179;59.364;18.018;2023-07-20T12:43:33;629.15;;;600.88;;
16147;SDS011;8179;59.364;18.018;2023-07-20T12:46:00;600.83;;;572.88;;
16147;SDS011;8179;59.364;18.018;2023-07-20T12:48:26;772.38;;;732.38;;
16147;SDS011;8179;59.364;18.018;2023-07-20T12:50:53;713.42;;;678.88;;
16147;SDS011;8179;59.364;18.018;2023-07-20T12:53:20;621.75;;;594.25;;
16147;SDS011;8179;59.364;18.018;2023-07-20T12:55:48;590.22;;;565.35;;
16147;SDS011;8179;59.364;18.018;2023-07-20T12:58:15;464.08;;;446.65;;
16147;SDS011;8179;59.364;18.018;2023-07-20T13:00:41;332.15;;;321.25;;
16147;SDS011;8179;59.364;18.018;2023-07-20T13:03:08;471.67;;;454.25;;
16147;SDS011;8179;59.364;18.018;2023-07-20T13:05:35;517.33;;;497.40;;
16147;SDS011;8179;59.364;18.018;2023-07-20T13:08:01;405.42;;;390.67;;
16147;SDS011;8179;59.364;18.018;2023-07-20T13:10:28;400.33;;;386.70;;
16147;SDS011;8179;59.364;18.018;2023-07-20T13:12:56;506.77;;;487.45;;
16147;SDS011;8179;59.364;18.018;2023-07-20T13:15:24;641.72;;;612.50;;
16147;SDS011;8179;59.364;18.018;2023-07-20T13:17:55;666.00;;;635.30;;
16147;SDS011;8179;59.364;18.018;2023-07-20T13:20:21;657.38;;;627.90;;
16147;SDS011;8179;59.364;18.018;2023-07-20T13:22:48;571.97;;;547.55;;
16147;SDS011;8179;59.364;18.018;2023-07-20T13:25:14;687.60;;;654.92;;
16147;SDS011;8179;59.364;18.018;2023-07-20T13:27:41;610.75;;;584.67;;
16147;SDS011;8179;59.364;18.018;2023-07-20T13:30:09;682.25;;;649.83;;
16147;SDS011;8179;59.364;18.018;2023-07-20T13:32:41;578.88;;;553.50;;
16147;SDS011;8179;59.364;18.018;2023-07-20T13:35:08;578.17;;;553.80;;
16147;SDS011;8179;59.364;18.018;2023-07-20T13:37:34;626.00;;;597.58;;
16147;SDS011;8179;59.364;18.018;2023-07-20T13:40:01;575.20;;;550.15;;
16147;SDS011;8179;59.364;18.018;2023-07-20T13:42:28;531.80;;;510.48;;
16147;SDS011;8179;59.364;18.018;2023-07-20T13:44:54;589.83;;;564.90;;
16147;SDS011;8179;59.364;18.018;2023-07-20T13:47:22;743.63;;;705.28;;
16147;SDS011;8179;59.364;18.018;2023-07-20T13:49:49;680.58;;;648.83;;
16147;SDS011;8179;59.364;18.018;2023-07-20T13:52:15;635.10;;;607.83;;
16147;SDS011;8179;59.364;18.018;2023-07-20T13:54:42;743.78;;;707.20;;
16147;SDS011;8179;59.364;18.018;2023-07-20T13:57:09;750.97;;;714.00;;
16147;SDS011;8179;59.364;18.018;2023-07-20T13:59:35;595.33;;;568.40;;